Time;durP1;ratioP1;P1;durP2;ratioP2;P2;SDS_P1;SDS_P2;PMS_P1;PMS_P2;Temp;Humidity;BMP_temperature;BMP_pressure;BME280_temperature;BME280_humidity;BME280_pressure;Samples;Min_cycle;Max_cycle;Signal;HPM_P1;HPM_P2
2022/05/04 00:00:31;;;;;;;1.13;0.30;;;;;;;4.62;64.12;101701.25;4896650;29;20382;-79
2022/05/04 00:02:56;;;;;;;1.42;0.30;;;;;;;4.86;63.78;101729.34;4897176;29;20536;-79
2022/05/04 00:05:22;;;;;;;2.17;0.35;;;;;;;4.83;63.85;101727.81;4898262;29;20470;-79
2022/05/04 00:07:47;;;;;;;1.75;0.40;;;;;;;4.70;64.70;101724.56;4896230;29;20032;-79
2022/05/04 00:10:13;;;;;;;1.20;0.20;;;;;;;4.70;65.93;101738.75;4909749;29;20452;-79
2022/05/04 00:12:39;;;;;;;0.47;0.20;;;;;;;4.59;65.60;101714.03;4897825;29;20036;-79
2022/05/04 00:15:05;;;;;;;2.13;0.40;;;;;;;4.65;66.02;101732.16;4899800;29;20443;-80
2022/05/04 00:17:32;;;;;;;0.57;0.20;;;;;;;4.53;66.41;101718.06;4882617;29;20088;-80
2022/05/04 00:19:57;;;;;;;1.48;0.30;;;;;;;4.55;67.31;101721.47;4899109;29;20036;-79
2022/05/04 00:22:25;;;;;;;2.30;0.20;;;;;;;4.54;67.02;101732.28;4885682;29;20033;-79
2022/05/04 00:24:50;;;;;;;1.92;0.30;;;;;;;4.48;67.40;101736.31;4897299;29;20051;-79
2022/05/04 00:27:16;;;;;;;1.10;0.28;;;;;;;4.46;67.97;101732.94;4895561;29;20057;-79
2022/05/04 00:29:43;;;;;;;2.03;0.50;;;;;;;4.22;68.22;101712.81;4897164;29;20467;-79
2022/05/04 00:32:12;;;;;;;1.45;0.30;;;;;;;4.22;68.57;101722.63;4897017;29;20024;-79
2022/05/04 00:34:38;;;;;;;1.45;0.30;;;;;;;4.27;69.12;101741.72;4897039;29;20115;-80
2022/05/04 00:37:06;;;;;;;1.17;0.35;;;;;;;4.24;69.11;101734.00;4895052;29;20055;-79
2022/05/04 00:39:32;;;;;;;3.33;0.45;;;;;;;4.24;68.72;101736.69;4884247;29;20041;-79
2022/05/04 00:42:11;;;;;;;1.90;0.30;;;;;;;4.23;68.59;101741.13;4896840;29;20371;-79
2022/05/04 00:44:37;;;;;;;0.68;0.30;;;;;;;4.22;68.51;101739.47;4894615;29;20056;-79
2022/05/04 00:47:04;;;;;;;2.08;0.40;;;;;;;4.20;68.90;101737.91;4898154;29;20115;-79
2022/05/04 00:49:30;;;;;;;2.25;0.68;;;;;;;4.17;68.40;101743.50;4895630;29;20047;-79
2022/05/04 00:51:55;;;;;;;2.38;0.40;;;;;;;4.13;68.43;101742.91;4897238;29;20041;-79
2022/05/04 00:54:21;;;;;;;1.67;0.40;;;;;;;4.11;68.74;101744.06;4896470;29;20075;-79
2022/05/04 00:56:47;;;;;;;1.52;0.40;;;;;;;4.11;68.68;101739.56;4895641;29;20047;-79
2022/05/04 00:59:13;;;;;;;2.60;0.32;;;;;;;4.14;67.80;101743.75;4885064;29;20044;-79
2022/05/04 01:01:38;;;;;;;1.40;0.40;;;;;;;4.16;68.60;101736.50;4898616;29;20032;-80
2022/05/04 01:04:04;;;;;;;0.60;0.30;;;;;;;4.14;68.08;101733.97;4901311;29;20029;-79
2022/05/04 01:06:29;;;;;;;0.77;0.30;;;;;;;4.06;68.56;101731.13;4868566;29;20034;-79
2022/05/04 01:08:55;;;;;;;1.33;0.40;;;;;;;4.04;69.15;101735.75;4900451;29;20540;-78
2022/05/04 01:11:21;;;;;;;0.50;0.30;;;;;;;3.99;68.94;101725.50;4899223;29;20104;-79
2022/05/04 01:14:04;;;;;;;0.38;0.20;;;;;;;3.88;70.16;101730.06;4900829;29;20025;-80
2022/05/04 01:16:31;;;;;;;1.50;0.32;;;;;;;3.78;71.02;101729.19;4899496;29;20345;-80
2022/05/04 01:18:57;;;;;;;0.73;0.22;;;;;;;3.48;71.31;101688.25;4884585;29;20375;-79
2022/05/04 01:21:22;;;;;;;1.83;0.40;;;;;;;3.61;71.91;101731.47;4886306;29;20040;-79
2022/05/04 01:23:48;;;;;;;0.70;0.30;;;;;;;3.50;72.27;101734.19;4898457;29;20020;-79
2022/05/04 01:26:17;;;;;;;2.25;0.50;;;;;;;3.40;73.25;101734.13;4900508;29;20033;-79
2022/05/04 01:28:44;;;;;;;2.03;0.40;;;;;;;3.34;73.16;101728.47;4898426;29;20447;-79
2022/05/04 01:31:09;;;;;;;1.48;0.45;;;;;;;3.15;74.25;101703.44;4897715;29;20455;-79
2022/05/04 01:33:35;;;;;;;1.70;0.50;;;;;;;3.12;73.73;101702.84;4899731;29;20047;-78
2022/05/04 01:36:00;;;;;;;1.65;0.43;;;;;;;3.28;73.07;101708.56;4898944;29;20037;-79
2022/05/04 01:38:26;;;;;;;4.57;0.45;;;;;;;3.44;73.19;101730.22;4901219;29;20379;-80
2022/05/04 01:40:51;;;;;;;1.58;0.50;;;;;;;3.29;72.79;101700.44;4902886;29;20037;-80
2022/05/04 01:43:16;;;;;;;0.90;0.47;;;;;;;3.55;72.43;101724.00;4900492;29;20028;-79
2022/05/04 01:45:42;;;;;;;1.00;0.40;;;;;;;3.61;72.25;101725.28;4898120;29;20028;-79
2022/05/04 01:48:07;;;;;;;2.65;0.77;;;;;;;3.60;71.80;101719.13;4898987;29;20041;-79
2022/05/04 01:50:33;;;;;;;1.42;0.60;;;;;;;3.66;71.13;101720.41;4899931;29;20032;-79
2022/05/04 01:52:58;;;;;;;2.97;0.50;;;;;;;3.69;70.88;101718.34;4882589;29;20104;-80
2022/05/04 01:55:25;;;;;;;2.65;0.38;;;;;;;3.74;70.74;101720.59;4900412;29;20028;-79
2022/05/04 01:57:51;;;;;;;1.88;0.43;;;;;;;3.69;70.80;101705.03;4898961;29;20024;-80
2022/05/04 02:00:16;;;;;;;1.60;0.40;;;;;;;3.86;70.55;101729.34;4883141;29;20047;-79
2022/05/04 02:02:43;;;;;;;2.95;0.60;;;;;;;3.84;70.50;101718.84;4899061;29;20119;-80
2022/05/04 02:05:09;;;;;;;2.63;0.40;;;;;;;3.92;69.52;101729.66;4898785;29;20073;-79
2022/05/04 02:07:35;;;;;;;1.25;0.60;;;;;;;3.75;69.51;101696.53;4882951;29;20048;-80
2022/05/04 02:10:02;;;;;;;0.82;0.40;;;;;;;3.97;69.29;101727.47;4899397;29;20180;-80
2022/05/04 02:12:28;;;;;;;1.98;0.40;;;;;;;4.00;68.88;101731.66;4900008;29;20120;-80
2022/05/04 02:14:53;;;;;;;2.78;0.70;;;;;;;4.03;69.35;101731.38;4882486;29;20072;-80
2022/05/04 02:17:19;;;;;;;4.45;0.70;;;;;;;4.02;68.70;101732.38;4898880;29;20035;-79
2022/05/04 02:19:44;;;;;;;1.48;0.50;;;;;;;4.05;69.48;101733.94;4898501;29;20036;-79
2022/05/04 02:22:09;;;;;;;1.70;0.38;;;;;;;4.04;68.95;101733.09;4898049;29;20206;-80
2022/05/04 02:24:35;;;;;;;2.17;0.60;;;;;;;4.04;68.59;101729.56;4898296;29;20465;-80
2022/05/04 02:27:00;;;;;;;7.97;1.73;;;;;;;4.05;68.72;101732.09;4899350;29;20052;-79
2022/05/04 02:29:25;;;;;;;1.95;0.70;;;;;;;3.84;67.81;101688.69;4897679;29;20036;-80
2022/05/04 02:31:51;;;;;;;2.80;0.50;;;;;;;4.12;67.37;101730.59;4883166;29;20044;-79
2022/05/04 02:34:16;;;;;;;2.38;0.50;;;;;;;4.08;67.53;101721.19;4897965;29;20483;-80
2022/05/04 02:39:25;;;;;;;2.50;0.50;;;;;;;3.98;67.41;101713.16;4901379;29;20691;-80
2022/05/04 02:41:52;;;;;;;2.03;0.50;;;;;;;4.13;67.06;101731.44;4903216;29;20033;-80
2022/05/04 02:44:18;;;;;;;5.05;0.50;;;;;;;4.17;66.74;101728.38;4904084;29;20519;-80
2022/05/04 02:46:47;;;;;;;1.83;0.40;;;;;;;4.06;67.32;101714.31;4902120;29;20096;-80
2022/05/04 02:49:12;;;;;;;1.50;0.70;;;;;;;4.15;66.63;101724.16;4903732;29;20047;-80
2022/05/04 02:51:38;;;;;;;1.95;0.50;;;;;;;4.12;66.80;101719.94;4881174;29;20036;-79
2022/05/04 02:54:03;;;;;;;1.83;0.60;;;;;;;4.10;67.53;101727.22;4895997;29;20100;-79
2022/05/04 02:56:29;;;;;;;3.63;0.68;;;;;;;4.04;66.92;101717.13;4898753;29;20025;-80
2022/05/04 02:58:55;;;;;;;3.30;0.70;;;;;;;3.90;67.61;101702.31;4898881;29;20020;-79
2022/05/04 03:04:06;;;;;;;3.70;0.70;;;;;;;4.00;67.85;101716.50;4898994;29;20153;-80
2022/05/04 03:06:40;;;;;;;1.83;0.60;;;;;;;3.91;67.90;101713.84;4897601;29;20044;-80
2022/05/04 03:09:07;;;;;;;1.25;0.52;;;;;;;3.83;68.27;101706.50;4883334;29;20033;-79
2022/05/04 03:14:20;;;;;;;0.85;0.43;;;;;;;3.92;67.63;101707.53;4881087;29;20191;-79
2022/05/04 03:16:52;;;;;;;1.85;0.45;;;;;;;3.94;66.97;101695.78;4880526;29;20459;-79
2022/05/04 03:19:18;;;;;;;1.95;0.70;;;;;;;4.02;66.41;101684.44;4881768;29;20048;-80
2022/05/04 03:21:43;;;;;;;2.70;0.63;;;;;;;4.15;65.82;101709.00;4879334;29;20036;-79
2022/05/04 03:24:09;;;;;;;2.65;0.60;;;;;;;4.19;65.80;101698.94;4891536;29;20727;-80
2022/05/04 03:26:35;;;;;;;5.00;0.63;;;;;;;4.21;66.08;101704.97;4901348;29;20036;-80
2022/05/04 03:29:01;;;;;;;0.95;0.50;;;;;;;4.22;65.72;101699.50;4902113;29;20043;-80
2022/05/04 03:31:27;;;;;;;2.60;0.50;;;;;;;4.23;66.14;101705.66;4877651;29;20028;-80
2022/05/04 03:33:52;;;;;;;3.40;0.55;;;;;;;4.24;66.01;101694.88;4877840;29;20528;-80
2022/05/04 03:36:18;;;;;;;1.13;0.47;;;;;;;4.27;66.04;101695.56;4895765;29;20455;-80
2022/05/04 03:38:46;;;;;;;2.53;0.73;;;;;;;4.20;66.13;101680.13;4896921;29;20052;-80
2022/05/04 03:41:12;;;;;;;3.30;0.50;;;;;;;4.30;65.53;101696.16;4897651;29;20104;-80
2022/05/04 03:43:37;;;;;;;1.98;0.65;;;;;;;4.33;65.96;101690.53;4896905;29;20045;-79
2022/05/04 03:46:23;;;;;;;3.00;0.55;;;;;;;4.05;65.67;101646.03;4877658;29;20039;-80
2022/05/04 03:48:58;;;;;;;3.45;0.55;;;;;;;4.33;65.85;101687.03;4878333;29;20467;-79
2022/05/04 03:51:24;;;;;;;4.00;0.65;;;;;;;4.41;64.96;101677.41;4895492;29;20064;-80
2022/05/04 03:53:51;;;;;;;1.88;0.50;;;;;;;4.70;64.83;101692.56;4901208;29;20043;-80
2022/05/04 03:56:17;;;;;;;3.25;0.60;;;;;;;4.94;63.79;101694.84;4878777;29;20036;-80
2022/05/04 03:58:43;;;;;;;1.30;0.60;;;;;;;5.07;63.12;101684.72;4878919;29;20040;-80
2022/05/04 04:01:09;;;;;;;2.20;0.70;;;;;;;4.65;62.91;101623.69;4886183;29;20444;-79
2022/05/04 04:03:35;;;;;;;1.73;0.65;;;;;;;4.91;62.82;101657.78;4897627;29;20032;-80
2022/05/04 04:06:01;;;;;;;1.95;0.40;;;;;;;5.01;62.97;101669.28;4881637;29;20036;-80
2022/05/04 04:08:27;;;;;;;1.52;0.50;;;;;;;5.02;62.28;101668.28;4895103;29;20121;-79
2022/05/04 04:10:53;;;;;;;4.45;0.60;;;;;;;5.19;61.68;101678.25;4897455;29;20103;-79
2022/05/04 04:13:18;;;;;;;1.30;0.43;;;;;;;5.40;61.34;101659.41;4897431;29;20307;-79
2022/05/04 04:15:43;;;;;;;2.88;0.60;;;;;;;5.91;59.24;101685.78;4897368;29;20037;-79
2022/05/04 04:18:09;;;;;;;3.35;0.43;;;;;;;6.34;57.68;101679.84;4896567;29;20035;-80
2022/05/04 04:23:19;;;;;;;4.68;0.70;;;;;;;7.37;54.01;101682.94;4897689;29;20508;-79
2022/05/04 04:25:45;;;;;;;3.25;0.60;;;;;;;8.17;51.69;101692.44;4880309;29;20044;-81
2022/05/04 04:28:10;;;;;;;3.10;0.52;;;;;;;8.45;50.00;101670.78;4897969;29;20482;-79
2022/05/04 04:30:39;;;;;;;3.65;0.60;;;;;;;8.42;50.19;101685.34;4900250;29;20056;-80
2022/05/04 04:33:06;;;;;;;3.85;0.68;;;;;;;9.09;47.66;101661.09;4909674;29;20135;-80
2022/05/04 04:35:32;;;;;;;1.40;0.65;;;;;;;9.43;46.78;101678.03;4886130;29;20043;-79
2022/05/04 04:37:58;;;;;;;1.42;0.50;;;;;;;9.34;47.28;101677.22;4901198;29;20071;-79
2022/05/04 04:40:24;;;;;;;3.47;0.65;;;;;;;9.07;47.56;101678.38;4885343;29;20060;-79
2022/05/04 04:42:49;;;;;;;5.97;0.70;;;;;;;8.97;47.61;101662.44;4900631;29;20037;-80
2022/05/04 04:45:15;;;;;;;1.85;0.65;;;;;;;8.83;47.80;101689.94;4900982;29;20119;-80
2022/05/04 04:47:40;;;;;;;3.15;0.63;;;;;;;9.41;46.77;101686.28;4896433;29;20033;-79
2022/05/04 04:50:06;;;;;;;5.07;0.63;;;;;;;9.65;46.39;101667.41;4896154;29;20469;-80
2022/05/04 04:52:32;;;;;;;5.18;0.50;;;;;;;9.60;45.86;101653.66;4897999;29;20051;-79
2022/05/04 04:54:57;;;;;;;1.95;0.70;;;;;;;10.16;44.65;101661.66;4901849;29;20024;-82
2022/05/04 04:57:22;;;;;;;2.38;0.55;;;;;;;9.61;45.97;101655.34;4894917;29;20028;-80
2022/05/04 04:59:49;;;;;;;3.80;0.70;;;;;;;10.05;45.59;101670.13;4907203;29;20024;-80
2022/05/04 05:02:15;;;;;;;5.03;0.90;;;;;;;10.75;44.25;101696.19;4905476;29;20032;-80
2022/05/04 05:04:40;;;;;;;5.50;0.70;;;;;;;10.85;44.41;101691.41;4899800;29;20352;-80
2022/05/04 05:07:06;;;;;;;1.73;0.70;;;;;;;11.16;43.62;101694.06;4896589;29;20040;-81
2022/05/04 05:09:31;;;;;;;2.45;0.60;;;;;;;11.47;43.24;101693.94;4884521;29;20060;-79
2022/05/04 05:11:56;;;;;;;4.25;0.60;;;;;;;10.85;43.52;101695.97;4883086;29;20033;-81
2022/05/04 05:17:06;;;;;;;5.45;1.05;;;;;;;10.15;45.42;101694.97;4900475;29;20047;-80
2022/05/04 05:19:31;;;;;;;3.42;0.82;;;;;;;9.81;45.88;101687.19;4900883;29;20040;-79
2022/05/04 05:21:56;;;;;;;5.82;0.90;;;;;;;10.00;45.91;101699.38;4900740;29;20036;-80
2022/05/04 05:24:22;;;;;;;8.82;0.93;;;;;;;10.08;45.67;101691.31;4901975;29;20123;-81
2022/05/04 05:26:47;;;;;;;5.55;0.75;;;;;;;9.20;47.38;101689.47;4902055;29;20029;-81
2022/05/04 05:29:12;;;;;;;6.07;1.10;;;;;;;9.07;48.51;101694.50;4900142;29;20360;-80
2022/05/04 05:31:38;;;;;;;7.90;0.88;;;;;;;8.73;48.53;101682.06;4899731;29;20227;-79
2022/05/04 05:34:03;;;;;;;5.38;0.85;;;;;;;9.02;48.96;101692.31;4900413;29;20040;-80
2022/05/04 05:36:29;;;;;;;5.03;0.80;;;;;;;9.15;49.43;101678.41;4900208;29;20040;-80
2022/05/04 05:38:54;;;;;;;3.70;0.90;;;;;;;9.49;48.56;101688.94;4895663;29;20049;-80
2022/05/04 05:41:20;;;;;;;9.05;0.90;;;;;;;9.59;48.95;101686.06;4899864;29;20033;-80
2022/05/04 05:43:45;;;;;;;9.63;1.20;;;;;;;9.50;49.40;101668.28;4898119;29;20033;-80
2022/05/04 05:46:10;;;;;;;11.52;1.42;;;;;;;9.66;48.79;101689.75;4896658;29;20036;-80
2022/05/04 05:48:36;;;;;;;9.32;1.15;;;;;;;10.01;48.64;101691.16;4899079;29;20040;-80
2022/05/04 05:51:05;;;;;;;6.85;0.85;;;;;;;10.13;48.37;101686.22;4899236;29;20036;-80
2022/05/04 05:53:31;;;;;;;15.02;1.17;;;;;;;9.85;48.24;101681.28;4900381;29;20447;-80
2022/05/04 05:55:57;;;;;;;15.05;1.40;;;;;;;9.76;48.42;101687.69;4899088;29;20363;-80
2022/05/04 05:58:23;;;;;;;12.20;1.30;;;;;;;9.41;47.91;101667.47;4897760;29;20024;-79
2022/05/04 06:00:49;;;;;;;3.75;1.02;;;;;;;9.99;48.00;101676.22;4905803;29;20061;-81
2022/05/04 06:03:15;;;;;;;13.52;1.25;;;;;;;9.83;48.02;101674.41;4888136;29;20371;-81
2022/05/04 06:05:41;;;;;;;11.30;1.33;;;;;;;9.93;48.51;101661.59;4905193;29;20092;-81
2022/05/04 06:08:09;;;;;;;3.92;1.20;;;;;;;10.35;48.76;101661.28;4902572;29;20471;-82
2022/05/04 06:10:38;;;;;;;7.20;1.20;;;;;;;10.34;49.13;101659.59;4906346;29;20028;-81
2022/05/04 06:13:04;;;;;;;14.15;1.38;;;;;;;10.50;48.60;101661.38;4908160;29;20486;-81
2022/05/04 06:15:29;;;;;;;8.10;1.05;;;;;;;10.35;48.73;101663.97;4903503;29;20044;-81
2022/05/04 06:17:55;;;;;;;4.15;1.00;;;;;;;10.60;49.15;101660.31;4893907;29;20093;-81
2022/05/04 06:20:22;;;;;;;2.80;1.00;;;;;;;10.76;49.47;101647.56;4905678;29;20106;-81
2022/05/04 06:22:48;;;;;;;7.60;1.20;;;;;;;10.93;49.97;101661.75;4875748;29;20021;-80
2022/05/04 06:25:14;;;;;;;10.20;1.40;;;;;;;11.16;49.29;101661.72;4899021;29;20029;-81
2022/05/04 06:27:39;;;;;;;10.57;1.50;;;;;;;10.86;50.55;101650.03;4898718;29;20100;-80
2022/05/04 06:35:33;;;;;;;10.25;1.60;;;;;;;11.60;49.85;101663.66;4881308;29;20052;-80
2022/05/04 06:37:58;;;;;;;5.78;1.30;;;;;;;11.67;49.79;101656.50;4890462;29;20056;-80
2022/05/04 06:40:24;;;;;;;9.23;1.30;;;;;;;11.35;49.26;101579.50;4897890;29;20043;-81
2022/05/04 06:42:49;;;;;;;8.13;1.50;;;;;;;12.04;49.47;101668.22;4899065;29;20054;-81
2022/05/04 06:45:14;;;;;;;9.15;1.48;;;;;;;12.10;49.00;101674.72;4897733;29;20056;-80
2022/05/04 06:47:40;;;;;;;7.57;1.65;;;;;;;12.33;49.04;101670.03;4903055;29;20066;-81
2022/05/04 06:50:06;;;;;;;10.88;1.60;;;;;;;12.46;48.68;101672.06;4903676;29;20037;-82
2022/05/04 06:52:32;;;;;;;14.27;1.67;;;;;;;12.84;48.31;101669.97;4925862;29;20032;-84
2022/05/04 06:54:58;;;;;;;15.57;1.92;;;;;;;13.32;47.34;101664.81;4919931;29;20009;-84
2022/05/04 06:57:23;;;;;;;8.98;1.58;;;;;;;12.43;47.45;101500.53;5342371;23;21031;-82
2022/05/04 06:59:50;;;;;;;4.25;1.38;;;;;;;12.41;47.39;101505.28;4917668;29;20071;-83
2022/05/04 07:02:16;;;;;;;6.40;1.20;;;;;;;13.71;46.98;101687.75;4901608;29;20028;-83
2022/05/04 07:04:42;;;;;;;3.45;1.20;;;;;;;13.42;46.74;101577.13;4904255;29;20012;-82
2022/05/04 07:07:08;;;;;;;6.60;0.93;;;;;;;13.94;47.03;101679.38;4923426;29;20025;-81
2022/05/04 07:09:33;;;;;;;4.35;1.05;;;;;;;13.86;47.45;101671.41;4903487;29;20047;-81
2022/05/04 07:11:59;;;;;;;3.50;1.20;;;;;;;13.73;47.92;101668.63;4868220;29;20047;-80
2022/05/04 07:14:25;;;;;;;4.10;1.10;;;;;;;13.66;48.10;101689.38;4873191;29;20455;-80
2022/05/04 07:16:50;;;;;;;3.38;1.10;;;;;;;13.19;48.34;101632.25;4900986;29;20092;-80
2022/05/04 07:19:16;;;;;;;3.25;1.00;;;;;;;13.37;48.79;101675.84;4884599;29;20043;-80
2022/05/04 07:21:47;;;;;;;6.57;1.20;;;;;;;13.25;49.14;101674.75;4868033;29;20028;-82
2022/05/04 07:24:13;;;;;;;2.10;0.98;;;;;;;13.30;49.44;101674.16;4883997;29;20036;-82
2022/05/04 07:26:40;;;;;;;7.00;1.20;;;;;;;13.21;49.85;101667.16;4884924;29;20039;-79
2022/05/04 07:29:05;;;;;;;4.07;1.08;;;;;;;13.44;49.95;101684.00;4880064;29;20032;-80
2022/05/04 07:31:30;;;;;;;3.45;0.80;;;;;;;13.39;50.13;101681.09;4903527;29;20100;-82
2022/05/04 07:33:56;;;;;;;4.18;0.90;;;;;;;13.31;50.12;101667.69;4886277;29;20108;-82
2022/05/04 07:36:21;;;;;;;4.32;0.85;;;;;;;13.37;49.94;101680.44;4908864;29;20029;-80
2022/05/04 07:38:47;;;;;;;2.20;1.00;;;;;;;13.44;50.19;101694.81;4910508;29;20052;-80
2022/05/04 07:43:56;;;;;;;2.78;0.80;;;;;;;13.70;49.74;101690.66;4905421;29;20145;-80
2022/05/04 07:46:21;;;;;;;2.75;0.90;;;;;;;13.91;49.65;101690.59;4881652;29;20064;-80
2022/05/04 07:48:47;;;;;;;2.70;1.00;;;;;;;13.86;50.34;101693.03;4872587;29;20025;-80
2022/05/04 07:51:12;;;;;;;4.90;0.90;;;;;;;13.94;49.97;101692.91;4883545;29;20555;-81
2022/05/04 07:53:38;;;;;;;3.22;0.77;;;;;;;14.09;49.86;101693.59;4873507;29;20485;-83
2022/05/04 07:56:04;;;;;;;2.67;0.90;;;;;;;14.09;49.99;101681.94;4895053;29;20109;-81
2022/05/04 07:58:29;;;;;;;3.80;1.00;;;;;;;14.06;50.78;101688.56;4872974;29;20048;-83
2022/05/04 08:06:23;;;;;;;3.63;1.10;;;;;;;13.58;52.21;101645.25;4905896;29;20108;-83
2022/05/04 08:08:49;;;;;;;2.97;1.10;;;;;;;13.93;52.68;101698.50;4893206;29;20044;-80
2022/05/04 08:11:15;;;;;;;2.22;1.00;;;;;;;13.76;53.31;101698.81;4909061;29;20047;-83
2022/05/04 08:13:40;;;;;;;3.03;1.05;;;;;;;13.89;53.49;101708.06;4891389;29;20060;-83
2022/05/04 08:16:07;;;;;;;5.22;1.20;;;;;;;14.24;53.46;101701.59;4913429;29;20028;-83
2022/05/04 08:18:32;;;;;;;2.45;1.30;;;;;;;14.48;53.13;101711.03;4909949;29;20093;-83
2022/05/04 08:20:58;;;;;;;5.15;1.20;;;;;;;14.31;53.61;101686.19;4907420;29;20107;-82
2022/05/04 08:23:24;;;;;;;5.90;1.30;;;;;;;14.36;53.43;101704.53;4890363;29;20036;-83
2022/05/04 08:25:50;;;;;;;4.68;1.50;;;;;;;14.45;53.41;101689.78;4893784;29;20047;-83
2022/05/04 08:28:15;;;;;;;5.53;2.00;;;;;;;14.62;53.99;101706.53;4907296;29;20060;-83
2022/05/04 08:30:41;;;;;;;4.47;1.27;;;;;;;14.64;53.65;101682.81;4908465;29;20151;-83
2022/05/04 08:33:06;;;;;;;7.97;1.50;;;;;;;14.82;53.89;101714.72;4909432;29;20032;-83
2022/05/04 08:35:32;;;;;;;3.13;1.50;;;;;;;14.80;54.13;101714.94;4875472;29;20045;-82
2022/05/04 08:37:58;;;;;;;4.40;1.52;;;;;;;14.70;54.38;101697.38;4890036;29;20031;-82
2022/05/04 08:40:24;;;;;;;6.32;1.52;;;;;;;14.78;54.77;101705.34;4892800;29;20037;-82
2022/05/04 08:42:51;;;;;;;3.33;1.30;;;;;;;14.65;54.90;101689.88;4888517;29;20336;-82
2022/05/04 08:45:16;;;;;;;5.55;1.70;;;;;;;14.88;55.02;101718.50;4873573;29;20056;-82
2022/05/04 08:47:44;;;;;;;4.05;1.70;;;;;;;14.78;55.44;101718.88;4906453;29;20399;-83
2022/05/04 08:50:15;;;;;;;3.17;1.80;;;;;;;14.62;56.78;101711.13;4891399;29;20082;-82
2022/05/04 08:52:44;;;;;;;8.70;1.88;;;;;;;14.59;56.68;101714.25;4888237;29;20025;-82
2022/05/04 08:55:10;;;;;;;5.88;2.05;;;;;;;14.59;57.92;101717.78;4884847;29;20036;-82
2022/05/04 08:57:37;;;;;;;4.65;1.88;;;;;;;14.51;58.70;101718.81;4900234;29;20052;-81
2022/05/04 09:00:03;;;;;;;5.90;2.08;;;;;;;14.46;59.94;101704.16;4898832;29;20036;-82
2022/05/04 09:02:28;;;;;;;5.60;2.50;;;;;;;14.46;61.16;101712.28;4901960;29;20184;-81
2022/05/04 09:04:54;;;;;;;5.45;2.10;;;;;;;14.55;61.88;101708.41;4901611;29;20076;-81
2022/05/04 09:07:24;;;;;;;4.93;2.22;;;;;;;14.69;61.72;101706.56;4899974;29;20044;-82
2022/05/04 09:09:53;;;;;;;5.82;2.25;;;;;;;14.72;62.26;101704.28;4888613;29;20047;-82
2022/05/04 09:12:19;;;;;;;10.30;2.60;;;;;;;14.67;62.41;101687.81;4917658;29;20056;-82
2022/05/04 09:14:45;;;;;;;6.28;2.60;;;;;;;14.87;61.91;101712.25;4895219;29;20074;-82
2022/05/04 09:17:13;;;;;;;5.68;2.20;;;;;;;14.88;62.04;101713.06;4893882;29;20534;-82
2022/05/04 09:19:41;;;;;;;5.05;2.42;;;;;;;14.54;60.97;101702.16;4913153;29;20036;-82
2022/05/04 09:22:17;;;;;;;6.88;2.10;;;;;;;14.73;61.53;101711.34;4903438;29;20092;-81
2022/05/04 09:24:44;;;;;;;3.83;2.20;;;;;;;14.90;61.15;101703.69;4900280;29;20104;-81
2022/05/04 09:27:09;;;;;;;6.32;2.38;;;;;;;14.92;60.06;101679.94;4870374;29;20486;-82
2022/05/04 09:29:36;;;;;;;6.35;2.03;;;;;;;15.08;59.56;101696.84;4902644;29;20028;-81
2022/05/04 09:32:13;;;;;;;7.20;2.10;;;;;;;15.08;59.38;101702.25;4903857;29;20036;-81
2022/05/04 09:34:38;;;;;;;4.60;2.20;;;;;;;15.06;59.53;101709.75;4912594;29;20032;-82
2022/05/04 09:45:37;;;;;;;4.32;2.30;;;;;;;14.60;59.64;101686.09;4901702;29;19918;-81
2022/05/04 09:48:04;;;;;;;5.93;2.33;;;;;;;14.88;59.66;101696.81;4903268;29;20020;-80
2022/05/04 09:50:37;;;;;;;6.07;2.60;;;;;;;15.01;59.74;101703.09;4884900;29;20060;-81
2022/05/04 09:53:02;;;;;;;6.65;2.38;;;;;;;15.01;60.22;101696.84;4901115;29;20069;-81
2022/05/04 09:55:28;;;;;;;7.10;2.58;;;;;;;15.04;60.15;101689.13;4866096;29;20060;-81
2022/05/04 09:57:55;;;;;;;5.40;2.20;;;;;;;15.04;60.12;101693.72;4885785;29;20044;-82
2022/05/04 10:00:22;;;;;;;4.45;2.90;;;;;;;14.77;60.62;101634.06;4900592;29;20173;-81
2022/05/04 10:02:52;;;;;;;7.72;2.75;;;;;;;15.25;60.95;101696.22;4900005;29;20454;-81
2022/05/04 10:05:19;;;;;;;5.05;2.80;;;;;;;15.27;61.84;101677.03;4880800;29;20116;-80
2022/05/04 10:07:47;;;;;;;5.45;2.78;;;;;;;15.50;61.21;101691.00;4900128;29;20034;-81
2022/05/04 10:10:17;;;;;;;4.40;2.85;;;;;;;15.61;61.69;101691.41;4880688;29;20048;-80
2022/05/04 10:12:44;;;;;;;10.35;3.40;;;;;;;15.59;62.02;101688.88;4880632;29;20095;-80
2022/05/04 10:15:11;;;;;;;5.90;2.95;;;;;;;15.59;61.94;101690.78;4883035;29;20128;-81
2022/05/04 10:18:07;;;;;;;6.30;3.42;;;;;;;15.52;62.29;101694.31;4899453;29;20708;-80
2022/05/04 10:21:16;;;;;;;7.80;3.20;;;;;;;15.66;62.44;101681.63;4883941;29;20029;-80
2022/05/04 10:23:44;;;;;;;6.88;2.58;;;;;;;15.72;61.49;101678.03;4883445;29;20447;-80
2022/05/04 10:26:14;;;;;;;12.52;3.65;;;;;;;15.97;61.26;101683.63;4899280;29;20111;-80
2022/05/04 10:30:30;;;;;;;10.55;2.83;;;;;;;15.73;61.02;101641.75;4881198;29;20032;-80
2022/05/04 10:31:29;;;;;;;7.57;2.63;;;;;;;16.07;60.65;101679.63;4887050;29;20542;-78
2022/05/04 10:33:56;;;;;;;7.20;2.88;;;;;;;16.13;59.79;101657.06;4882851;29;20119;-78
2022/05/04 10:36:30;;;;;;;8.45;2.63;;;;;;;16.33;58.29;101676.00;4899127;29;20361;-78
2022/05/04 10:38:57;;;;;;;5.57;2.30;;;;;;;16.59;58.38;101684.00;4899003;29;20040;-78
2022/05/04 10:41:37;;;;;;;9.70;2.03;;;;;;;16.71;57.13;101675.16;4883627;29;20130;-78
2022/05/04 10:44:03;;;;;;;7.13;2.38;;;;;;;16.67;56.95;101669.31;4883055;29;20031;-80
2022/05/04 10:46:31;;;;;;;12.68;3.50;;;;;;;16.68;57.93;101660.09;4899683;29;20419;-81
2022/05/04 10:48:57;;;;;;;9.15;2.38;;;;;;;16.84;58.03;101670.47;4897108;29;20032;-82
2022/05/04 10:51:27;;;;;;;6.75;1.95;;;;;;;16.96;57.04;101676.06;4882827;29;20036;-81
2022/05/04 10:54:08;;;;;;;6.43;2.47;;;;;;;16.89;57.65;101672.56;4885327;29;20025;-81
2022/05/04 10:56:40;;;;;;;6.82;2.30;;;;;;;16.79;57.28;101631.44;4883014;29;20491;-82
2022/05/04 10:59:06;;;;;;;8.13;2.40;;;;;;;16.96;58.46;101656.19;4881960;29;20078;-81
2022/05/04 11:01:37;;;;;;;10.25;2.20;;;;;;;17.18;58.31;101664.78;4884381;29;20029;-80
2022/05/04 11:04:11;;;;;;;9.35;2.50;;;;;;;17.27;58.41;101658.03;4875892;29;20070;-81
2022/05/04 11:06:50;;;;;;;;;;;;;;;17.44;57.73;101666.44;4884678;29;20460;-80
2022/05/04 11:09:20;;;;;;;10.63;2.78;;;;;;;17.37;58.01;101661.91;4891744;29;19911;-80
2022/05/04 11:11:48;;;;;;;11.98;2.83;;;;;;;17.14;58.41;101645.38;4873511;29;20040;-81
2022/05/04 11:14:16;;;;;;;8.73;3.00;;;;;;;17.45;57.75;101651.78;4903401;29;20038;-80
2022/05/04 11:16:43;;;;;;;9.77;2.53;;;;;;;17.55;57.02;101652.97;4903495;29;20043;-81
2022/05/04 11:19:11;;;;;;;7.40;2.15;;;;;;;17.67;55.52;101652.19;4903663;29;20115;-81
2022/05/04 11:21:37;;;;;;;7.22;1.60;;;;;;;17.76;53.17;101657.16;4905262;29;20411;-80
2022/05/04 11:24:05;;;;;;;7.22;2.95;;;;;;;17.75;52.75;101650.03;4902375;29;20028;-80
2022/05/04 11:26:38;;;;;;;9.52;1.92;;;;;;;17.56;51.08;101651.06;4888908;29;20037;-81
2022/05/04 11:29:28;;;;;;;8.25;2.45;;;;;;;17.53;53.22;101648.78;4886372;29;20048;-81
2022/05/04 11:31:56;;;;;;;8.10;2.17;;;;;;;17.67;53.58;101642.13;4878428;29;20044;-82
2022/05/04 11:34:40;;;;;;;8.10;1.92;;;;;;;17.77;51.86;101652.53;4901746;29;20024;-79
2022/05/04 11:37:11;;;;;;;8.13;2.05;;;;;;;17.70;53.02;101624.53;4944440;23;20073;-80
2022/05/04 11:39:38;;;;;;;9.55;2.70;;;;;;;17.61;53.42;101624.84;4860048;29;20452;-81
2022/05/04 11:42:05;;;;;;;16.00;3.50;;;;;;;17.28;55.99;101644.19;4830564;29;20071;-81
2022/05/04 11:44:31;;;;;;;10.65;3.20;;;;;;;17.16;58.29;101646.00;4867866;29;20571;-79
2022/05/04 11:46:58;;;;;;;13.40;3.50;;;;;;;16.89;60.22;101643.50;4844948;29;20046;-79
2022/05/04 11:49:26;;;;;;;12.57;3.50;;;;;;;16.82;61.20;101641.84;4877705;29;20041;-78
2022/05/04 11:51:54;;;;;;;10.95;2.92;;;;;;;17.05;61.41;101657.56;4861789;29;20029;-80
2022/05/04 11:54:20;;;;;;;14.25;3.72;;;;;;;17.09;61.75;101645.22;4858924;29;20029;-79
2022/05/04 11:56:46;;;;;;;9.32;2.97;;;;;;;17.06;61.53;101626.63;4845061;29;20030;-79
2022/05/04 11:59:12;;;;;;;13.85;3.25;;;;;;;17.10;61.68;101649.59;4844140;29;20037;-80
2022/05/04 12:01:38;;;;;;;11.30;3.45;;;;;;;17.09;61.09;101645.22;4848680;29;20149;-79
2022/05/04 12:04:05;;;;;;;9.32;3.45;;;;;;;16.97;61.17;101626.06;4844578;29;20400;-80